createdAt,value
2024-02-24T00:00:32.445Z,0.50
2024-02-24T00:03:00.508Z,0.63
2024-02-24T00:05:28.489Z,0.40
2024-02-24T00:07:56.823Z,0.20
2024-02-24T00:10:24.806Z,0.30
2024-02-24T00:12:52.693Z,0.40
2024-02-24T00:15:22.071Z,0.43
2024-02-24T00:17:49.876Z,0.40
2024-02-24T00:20:17.766Z,0.82
2024-02-24T00:22:45.591Z,0.40
2024-02-24T00:25:13.376Z,0.40
2024-02-24T00:27:41.117Z,0.40
2024-02-24T00:30:10.721Z,0.28
2024-02-24T00:32:40.007Z,0.30
2024-02-24T00:35:08.546Z,0.32
2024-02-24T00:37:36.420Z,0.50
2024-02-24T00:40:04.474Z,0.28
2024-02-24T00:42:32.274Z,0.30
2024-02-24T00:45:00.142Z,0.30
2024-02-24T00:47:28.026Z,0.43
2024-02-24T00:49:57.213Z,0.40
2024-02-24T00:52:27.053Z,0.40
2024-02-24T00:54:55.105Z,0.40
2024-02-24T00:57:22.857Z,0.20
2024-02-24T00:59:50.646Z,0.45
2024-02-24T01:02:18.789Z,0.40
2024-02-24T01:04:46.724Z,0.22
2024-02-24T01:07:16.959Z,0.40
2024-02-24T01:12:13.177Z,0.40
2024-02-24T01:14:41.049Z,0.40
2024-02-24T01:17:09.076Z,0.25
2024-02-24T01:19:37.522Z,0.25
2024-02-24T01:22:06.268Z,0.30
2024-02-24T01:24:35.406Z,0.30
2024-02-24T01:27:03.131Z,0.30
2024-02-24T01:29:30.917Z,0.28
2024-02-24T01:32:00.701Z,0.38
2024-02-24T01:34:28.586Z,0.22
2024-02-24T01:36:56.550Z,0.15
2024-02-24T01:39:24.476Z,0.38
2024-02-24T01:41:53.705Z,0.20
2024-02-24T01:44:21.491Z,0.20
2024-02-24T01:46:49.902Z,0.22
2024-02-24T01:49:18.217Z,0.20
2024-02-24T01:51:47.598Z,0.30
2024-02-24T01:54:15.780Z,0.32
2024-02-24T01:56:45.381Z,0.30
2024-02-24T01:59:14.600Z,0.30
2024-02-24T02:01:43.405Z,0.40
2024-02-24T02:04:11.311Z,0.32
2024-02-24T02:06:39.349Z,0.20
2024-02-24T02:09:08.073Z,0.30
2024-02-24T02:11:42.122Z,0.20
2024-02-24T02:14:17.502Z,0.20
2024-02-24T02:16:45.342Z,0.52
2024-02-24T02:19:13.326Z,0.20
2024-02-24T02:21:43.705Z,0.25
2024-02-24T02:26:40.876Z,0.30
2024-02-24T02:29:08.790Z,0.30
2024-02-24T02:31:36.639Z,0.30
2024-02-24T02:34:04.836Z,0.30
2024-02-24T02:36:32.693Z,0.10
2024-02-24T02:39:00.687Z,0.22
2024-02-24T02:41:29.855Z,0.55
2024-02-24T02:43:57.638Z,0.30
2024-02-24T02:46:25.482Z,0.30
2024-02-24T02:48:53.665Z,0.20
2024-02-24T02:51:21.644Z,0.20
2024-02-24T02:53:49.437Z,0.20
2024-02-24T02:56:21.785Z,0.32
2024-02-24T02:58:50.943Z,0.20
2024-02-24T03:01:18.819Z,0.20
2024-02-24T03:03:46.636Z,0.17
2024-02-24T03:06:15.029Z,0.20
2024-02-24T03:08:42.971Z,0.20
2024-02-24T03:11:16.358Z,0.10
2024-02-24T03:13:44.203Z,0.20
2024-02-24T03:16:13.633Z,0.20
2024-02-24T03:18:44.431Z,0.20
2024-02-24T03:21:12.286Z,0.20
2024-02-24T03:23:40.206Z,0.30
2024-02-24T03:26:08.150Z,0.30
2024-02-24T03:28:36.012Z,0.30
2024-02-24T03:31:03.832Z,0.20
2024-02-24T03:33:33.023Z,0.20
2024-02-24T03:36:00.944Z,0.43
2024-02-24T03:38:28.851Z,0.20
2024-02-24T03:40:56.722Z,0.30
2024-02-24T03:43:24.549Z,0.28
2024-02-24T03:45:52.301Z,0.25
2024-02-24T03:48:20.223Z,0.28
2024-02-24T03:50:49.508Z,0.30
2024-02-24T03:53:17.296Z,0.10
2024-02-24T03:55:45.207Z,0.20
2024-02-24T03:58:14.065Z,0.25
2024-02-24T04:00:41.888Z,0.32
2024-02-24T04:03:09.695Z,0.20
2024-02-24T04:05:37.528Z,0.30
2024-02-24T04:08:07.483Z,0.30
2024-02-24T04:10:36.552Z,0.20
2024-02-24T04:13:04.579Z,0.22
2024-02-24T04:15:32.361Z,0.28
2024-02-24T04:18:00.336Z,0.30
2024-02-24T04:20:28.232Z,0.05
2024-02-24T04:22:56.023Z,0.10
2024-02-24T04:25:25.161Z,0.20
2024-02-24T04:27:52.895Z,0.20
2024-02-24T04:30:20.697Z,0.30
2024-02-24T04:32:48.534Z,0.10
2024-02-24T04:35:16.530Z,0.20
2024-02-24T04:37:44.393Z,0.20
2024-02-24T04:40:12.638Z,0.30
2024-02-24T04:42:41.752Z,0.35
2024-02-24T04:45:10.843Z,0.35
2024-02-24T04:47:38.861Z,0.35
2024-02-24T04:50:07.783Z,0.30
2024-02-24T04:52:35.627Z,0.10
2024-02-24T04:55:04.340Z,0.35
2024-02-24T04:57:32.342Z,0.20
2024-02-24T05:00:01.582Z,0.65
2024-02-24T05:02:29.644Z,0.25
2024-02-24T05:04:57.460Z,0.10
2024-02-24T05:07:25.836Z,0.28
2024-02-24T05:09:53.605Z,0.20
2024-02-24T05:12:21.463Z,0.30
2024-02-24T05:14:49.666Z,0.20
2024-02-24T05:17:18.854Z,0.13
2024-02-24T05:19:46.846Z,0.38
2024-02-24T05:22:14.642Z,0.20
2024-02-24T05:24:43.661Z,0.40
2024-02-24T05:27:11.683Z,0.30
2024-02-24T05:29:39.514Z,0.20
2024-02-24T05:32:07.933Z,0.10
2024-02-24T05:34:37.488Z,0.43
2024-02-24T05:37:05.479Z,0.20
2024-02-24T05:39:33.228Z,0.35
2024-02-24T05:42:00.973Z,0.20
2024-02-24T05:44:28.795Z,0.15
2024-02-24T05:46:56.597Z,0.50
2024-02-24T05:49:24.620Z,0.25
2024-02-24T05:51:54.547Z,0.25
2024-02-24T05:54:22.463Z,0.22
2024-02-24T05:56:50.303Z,0.47
2024-02-24T05:59:18.237Z,0.30
2024-02-24T06:01:46.035Z,0.20
2024-02-24T06:04:14.516Z,0.25
2024-02-24T06:06:44.275Z,0.13
2024-02-24T06:09:13.695Z,0.40
2024-02-24T06:11:41.643Z,0.28
2024-02-24T06:14:09.641Z,0.22
2024-02-24T06:16:37.513Z,0.17
2024-02-24T06:19:05.786Z,0.15
2024-02-24T06:21:33.939Z,0.38
2024-02-24T06:24:01.789Z,0.73
2024-02-24T06:26:31.162Z,0.40
2024-02-24T06:28:58.945Z,0.20
2024-02-24T06:31:27.778Z,0.40
2024-02-24T06:33:55.875Z,0.30
2024-02-24T06:36:23.803Z,0.28
2024-02-24T06:38:51.957Z,0.28
2024-02-24T06:41:20.770Z,0.30
2024-02-24T06:43:50.083Z,0.30
2024-02-24T06:46:17.837Z,0.20
2024-02-24T06:48:47.461Z,0.30
2024-02-24T06:51:22.402Z,0.20
2024-02-24T06:53:56.759Z,0.20
2024-02-24T06:56:29.043Z,0.20
2024-02-24T06:58:59.755Z,0.35
2024-02-24T07:01:36.068Z,0.50
2024-02-24T07:04:11.601Z,0.20
2024-02-24T07:06:39.489Z,0.30
2024-02-24T07:09:08.988Z,0.30
2024-02-24T07:11:37.493Z,0.60
2024-02-24T07:14:06.690Z,0.32
2024-02-24T07:16:38.003Z,0.17
2024-02-24T07:19:05.781Z,0.20
2024-02-24T07:21:33.584Z,0.40
2024-02-24T07:24:01.484Z,0.30
2024-02-24T07:26:29.594Z,0.20
2024-02-24T07:28:57.419Z,0.30
2024-02-24T07:31:26.784Z,0.43
2024-02-24T07:33:54.864Z,0.45
2024-02-24T07:36:22.754Z,0.30
2024-02-24T07:38:50.584Z,0.20
2024-02-24T07:41:18.577Z,0.20
2024-02-24T07:43:46.705Z,0.40
2024-02-24T07:46:21.247Z,0.32
2024-02-24T07:48:50.632Z,0.55
2024-02-24T07:51:18.676Z,0.30
2024-02-24T07:53:46.599Z,0.20
2024-02-24T07:56:14.644Z,0.20
2024-02-24T07:58:42.673Z,0.20
2024-02-24T08:01:11.276Z,0.47
2024-02-24T08:03:39.722Z,0.30
2024-02-24T08:06:09.564Z,0.32
2024-02-24T08:08:38.478Z,0.32
2024-02-24T08:11:08.625Z,0.28
2024-02-24T08:13:43.297Z,0.22
2024-02-24T08:16:11.757Z,0.20
2024-02-24T08:18:39.652Z,0.30
2024-02-24T08:21:09.957Z,0.40
2024-02-24T08:23:38.752Z,0.30
2024-02-24T08:26:06.702Z,0.30
2024-02-24T08:28:34.862Z,0.40
2024-02-24T08:31:02.853Z,0.20
2024-02-24T08:33:30.935Z,0.30
2024-02-24T08:35:59.434Z,0.32
2024-02-24T08:38:39.315Z,0.35
2024-02-24T08:41:07.957Z,0.47
2024-02-24T08:43:35.801Z,0.35
2024-02-24T08:46:04.630Z,0.57
2024-02-24T08:48:32.709Z,0.60
2024-02-24T08:51:00.660Z,0.95
2024-02-24T08:53:30.100Z,0.70
2024-02-24T08:56:01.678Z,0.68
2024-02-24T08:58:29.804Z,0.60
2024-02-24T09:00:58.890Z,0.32
2024-02-24T09:03:26.911Z,0.40
2024-02-24T09:05:56.230Z,1.00
2024-02-24T09:08:24.679Z,0.73
2024-02-24T09:10:54.078Z,0.55
2024-02-24T09:13:21.947Z,0.50
2024-02-24T09:15:49.849Z,0.80
2024-02-24T09:18:18.652Z,0.55
2024-02-24T09:20:47.085Z,0.80
2024-02-24T09:23:15.038Z,0.60
2024-02-24T09:25:42.815Z,1.13
2024-02-24T09:28:13.958Z,0.55
2024-02-24T09:30:41.972Z,0.82
2024-02-24T09:33:09.978Z,0.52
2024-02-24T09:35:38.005Z,0.93
2024-02-24T09:38:05.994Z,0.60
2024-02-24T09:40:33.834Z,0.75
2024-02-24T09:43:06.052Z,0.95
2024-02-24T09:45:43.037Z,0.95
2024-02-24T09:48:12.812Z,1.35
2024-02-24T09:50:41.986Z,0.80
2024-02-24T09:53:10.986Z,0.77
2024-02-24T09:55:39.163Z,1.02
2024-02-24T09:58:11.969Z,0.80
2024-02-24T10:00:41.067Z,1.20
2024-02-24T10:03:10.037Z,0.73
2024-02-24T10:05:41.157Z,0.90
2024-02-24T10:08:09.176Z,0.60
2024-02-24T10:10:38.908Z,0.60
2024-02-24T10:13:07.207Z,0.80
2024-02-24T10:15:36.867Z,0.90
2024-02-24T10:18:09.309Z,0.85
2024-02-24T10:20:37.231Z,0.60
2024-02-24T10:23:05.993Z,0.65
2024-02-24T10:25:34.059Z,0.80
2024-02-24T10:28:02.616Z,1.02
2024-02-24T10:30:30.794Z,0.50
2024-02-24T10:33:00.543Z,0.88
2024-02-24T10:35:30.051Z,0.70
2024-02-24T10:38:11.544Z,0.60
2024-02-24T10:40:47.122Z,0.47
2024-02-24T10:43:16.878Z,0.60
2024-02-24T10:45:44.927Z,1.25
2024-02-24T10:48:13.649Z,1.10
2024-02-24T10:50:46.272Z,0.68
2024-02-24T10:53:18.583Z,0.57
2024-02-24T10:55:46.923Z,0.82
2024-02-24T10:58:20.549Z,0.50
2024-02-24T11:00:55.132Z,0.80
2024-02-24T11:03:25.343Z,0.70
2024-02-24T11:05:56.158Z,0.68
2024-02-24T11:08:37.398Z,0.43
2024-02-24T11:11:10.364Z,0.40
2024-02-24T11:13:59.623Z,0.63
2024-02-24T11:16:36.938Z,0.60
2024-02-24T11:19:15.020Z,0.60
2024-02-24T11:22:05.057Z,0.45
2024-02-24T11:24:34.808Z,0.35
2024-02-24T11:27:03.528Z,0.50
2024-02-24T11:29:36.898Z,0.55
2024-02-24T11:32:17.992Z,0.50
2024-02-24T11:34:47.115Z,0.55
2024-02-24T11:37:20.185Z,0.40
2024-02-24T11:39:49.059Z,0.40
2024-02-24T11:42:17.034Z,0.70
2024-02-24T11:44:51.787Z,0.40
2024-02-24T11:47:20.437Z,0.43
2024-02-24T11:49:49.834Z,0.60
2024-02-24T11:52:19.612Z,0.40
2024-02-24T11:54:48.580Z,0.38
2024-02-24T11:57:16.606Z,0.40
2024-02-24T11:59:44.407Z,0.32
2024-02-24T12:02:17.749Z,0.55
2024-02-24T12:04:45.670Z,0.60
2024-02-24T12:07:13.871Z,0.60
2024-02-24T12:09:43.346Z,0.38
2024-02-24T12:12:11.634Z,0.52
2024-02-24T12:14:40.150Z,0.38
2024-02-24T12:17:07.965Z,0.52
2024-02-24T12:19:39.779Z,0.40
2024-02-24T12:22:11.223Z,0.32
2024-02-24T12:24:40.222Z,0.40
2024-02-24T12:27:11.789Z,0.50
2024-02-24T12:29:40.056Z,0.30
2024-02-24T12:32:09.581Z,0.40
2024-02-24T12:34:38.533Z,0.22
2024-02-24T12:37:08.546Z,0.50
2024-02-24T12:39:42.671Z,0.50
2024-02-24T12:42:11.882Z,0.50
2024-02-24T12:44:39.801Z,0.70
2024-02-24T12:47:08.033Z,0.80
2024-02-24T12:49:36.716Z,1.27
2024-02-24T12:52:06.078Z,1.10
2024-02-24T12:54:34.237Z,1.23
2024-02-24T12:57:02.148Z,1.52
2024-02-24T12:59:31.458Z,1.17
2024-02-24T13:02:00.287Z,1.05
2024-02-24T13:04:29.121Z,0.82
2024-02-24T13:06:57.645Z,1.00
2024-02-24T13:09:25.987Z,1.33
2024-02-24T13:12:10.313Z,1.48
2024-02-24T13:14:40.092Z,1.00
2024-02-24T13:17:07.914Z,0.80
2024-02-24T13:19:35.844Z,0.70
2024-02-24T13:22:06.047Z,1.17
2024-02-24T13:27:02.144Z,1.13
2024-02-24T13:29:30.548Z,1.08
2024-02-24T13:31:59.843Z,1.13
2024-02-24T13:34:27.872Z,0.90
2024-02-24T13:36:55.752Z,1.10
2024-02-24T13:39:24.819Z,1.10
2024-02-24T13:41:55.212Z,0.88
2024-02-24T13:44:23.512Z,0.85
2024-02-24T13:46:51.725Z,0.95
2024-02-24T13:49:21.508Z,0.70
2024-02-24T13:51:49.589Z,0.60
2024-02-24T13:54:17.481Z,1.00
2024-02-24T13:56:45.473Z,0.70
2024-02-24T13:59:13.333Z,0.90
2024-02-24T14:01:41.422Z,0.55
2024-02-24T14:04:09.332Z,1.00
2024-02-24T14:06:39.278Z,0.55
2024-02-24T14:09:08.401Z,0.70
2024-02-24T14:11:36.897Z,0.70
2024-02-24T14:14:04.879Z,0.75
2024-02-24T14:16:33.687Z,0.63
2024-02-24T14:19:01.559Z,0.68
2024-02-24T14:21:29.440Z,1.00
2024-02-24T14:23:58.713Z,1.38
2024-02-24T14:26:26.638Z,0.50
2024-02-24T14:29:00.757Z,0.45
2024-02-24T14:31:31.433Z,0.55
2024-02-24T14:33:59.442Z,0.68
2024-02-24T14:36:27.407Z,0.55
2024-02-24T14:39:09.139Z,0.60
2024-02-24T14:41:36.940Z,0.30
2024-02-24T14:44:05.826Z,0.45
2024-02-24T14:46:33.666Z,0.52
2024-02-24T14:49:05.216Z,0.70
2024-02-24T14:51:33.514Z,0.55
2024-02-24T14:54:04.227Z,0.60
2024-02-24T14:56:34.227Z,0.63
2024-02-24T14:59:02.517Z,0.50
2024-02-24T15:01:30.979Z,0.50
2024-02-24T15:04:00.256Z,0.50
2024-02-24T15:06:28.293Z,0.65
2024-02-24T15:08:56.404Z,0.70
2024-02-24T15:11:26.682Z,0.70
2024-02-24T15:16:23.661Z,0.80
2024-02-24T15:18:51.595Z,0.40
2024-02-24T15:21:19.664Z,0.77
2024-02-24T15:23:47.540Z,0.40
2024-02-24T15:26:15.651Z,0.60
2024-02-24T15:28:44.832Z,0.52
2024-02-24T15:31:18.023Z,0.57
2024-02-24T15:33:46.030Z,0.57
2024-02-24T15:36:14.505Z,0.40
2024-02-24T15:38:42.427Z,0.60
2024-02-24T15:41:10.930Z,0.60
2024-02-24T15:43:41.245Z,0.73
2024-02-24T15:46:10.325Z,0.70
2024-02-24T15:48:38.204Z,0.77
2024-02-24T15:51:08.351Z,0.50
2024-02-24T15:56:04.968Z,0.50
2024-02-24T15:58:32.993Z,0.57
2024-02-24T16:01:00.773Z,0.43
2024-02-24T16:03:30.223Z,0.50
2024-02-24T16:05:58.093Z,0.40
2024-02-24T16:08:27.829Z,0.43
2024-02-24T16:10:55.653Z,0.60
2024-02-24T16:13:22.481Z,0.85
2024-02-24T16:15:50.926Z,0.50
2024-02-24T16:18:18.952Z,0.50
2024-02-24T16:20:48.389Z,0.80
2024-02-24T16:23:17.143Z,0.50
2024-02-24T16:25:45.156Z,1.85
2024-02-24T16:28:13.050Z,0.70
2024-02-24T16:30:40.890Z,0.93
2024-02-24T16:33:08.771Z,0.98
2024-02-24T16:35:36.803Z,1.13
2024-02-24T16:38:07.508Z,0.70
2024-02-24T16:40:35.269Z,0.90
2024-02-24T16:43:03.497Z,0.52
2024-02-24T16:45:31.524Z,0.80
2024-02-24T16:47:59.426Z,0.70
2024-02-24T16:50:27.510Z,0.70
2024-02-24T16:52:55.525Z,0.60
2024-02-24T16:55:24.965Z,0.60
2024-02-24T16:57:52.878Z,1.40
2024-02-24T17:00:33.462Z,1.10
2024-02-24T17:03:01.338Z,0.63
2024-02-24T17:05:29.391Z,1.25
2024-02-24T17:07:57.222Z,0.80
2024-02-24T17:10:26.320Z,0.85
2024-02-24T17:12:54.594Z,0.80
2024-02-24T17:15:22.497Z,1.13
2024-02-24T17:17:50.488Z,0.90
2024-02-24T17:20:19.966Z,0.77
2024-02-24T17:22:47.811Z,0.80
2024-02-24T17:25:16.751Z,1.00
2024-02-24T17:27:49.141Z,0.68
2024-02-24T17:30:18.569Z,0.55
2024-02-24T17:32:46.584Z,2.05
2024-02-24T17:35:30.899Z,0.93
2024-02-24T17:38:03.460Z,0.90
2024-02-24T17:40:34.965Z,0.50
2024-02-24T17:43:05.172Z,1.30
2024-02-24T17:48:01.386Z,1.00
2024-02-24T17:50:29.261Z,1.15
2024-02-24T17:52:57.306Z,0.90
2024-02-24T17:55:25.437Z,1.05
2024-02-24T17:57:54.190Z,0.85
2024-02-24T18:00:24.007Z,1.33
2024-02-24T18:02:51.851Z,0.70
2024-02-24T18:05:20.638Z,1.38
2024-02-24T18:07:49.676Z,0.88
2024-02-24T18:10:18.026Z,0.70
2024-02-24T18:12:46.085Z,0.70
2024-02-24T18:15:14.266Z,0.77
2024-02-24T18:17:43.770Z,0.65
2024-02-24T18:20:12.904Z,0.82
2024-02-24T18:22:43.948Z,0.63
2024-02-24T18:25:13.492Z,0.73
2024-02-24T18:27:41.433Z,2.13
2024-02-24T18:30:10.094Z,1.33
2024-02-24T18:32:38.252Z,0.60
2024-02-24T18:35:08.782Z,0.90
2024-02-24T18:37:36.575Z,1.00
2024-02-24T18:40:06.040Z,0.93
2024-02-24T18:42:34.276Z,0.60
2024-02-24T18:45:02.172Z,0.70
2024-02-24T18:47:30.731Z,1.58
2024-02-24T18:49:59.465Z,0.98
2024-02-24T18:52:29.323Z,0.70
2024-02-24T18:54:57.294Z,0.70
2024-02-24T18:57:25.319Z,1.67
2024-02-24T18:59:54.354Z,1.02
2024-02-24T19:02:22.239Z,0.70
2024-02-24T19:04:51.889Z,1.33
2024-02-24T19:07:19.822Z,1.05
2024-02-24T19:09:49.156Z,0.90
2024-02-24T19:12:17.976Z,1.00
2024-02-24T19:14:52.147Z,0.90
2024-02-24T19:17:24.945Z,1.02
2024-02-24T19:19:53.723Z,0.95
2024-02-24T19:22:21.635Z,0.70
2024-02-24T19:24:50.704Z,1.08
2024-02-24T19:27:18.490Z,0.82
2024-02-24T19:29:46.367Z,0.60
2024-02-24T19:32:14.260Z,1.00
2024-02-24T19:34:42.118Z,0.93
2024-02-24T19:37:10.823Z,1.10
2024-02-24T19:39:38.933Z,0.80
2024-02-24T19:42:08.452Z,0.63
2024-02-24T19:44:38.252Z,0.75
2024-02-24T19:47:10.557Z,0.80
2024-02-24T19:49:38.679Z,1.17
2024-02-24T19:52:07.112Z,0.90
2024-02-24T19:54:35.060Z,0.70
2024-02-24T19:57:02.993Z,0.55
2024-02-24T19:59:32.491Z,1.50
2024-02-24T20:02:00.785Z,0.98
2024-02-24T20:04:31.061Z,0.70
2024-02-24T20:06:59.156Z,0.90
2024-02-24T20:09:27.293Z,0.50
2024-02-24T20:11:55.135Z,0.68
2024-02-24T20:14:23.791Z,1.10
2024-02-24T20:16:53.034Z,0.75
2024-02-24T20:19:20.949Z,0.80
2024-02-24T20:21:48.788Z,0.80
2024-02-24T20:24:16.742Z,1.00
2024-02-24T20:26:44.613Z,0.85
2024-02-24T20:29:12.683Z,0.90
2024-02-24T20:31:40.892Z,0.77
2024-02-24T20:34:10.256Z,1.23
2024-02-24T20:36:38.250Z,0.40
2024-02-24T20:39:07.181Z,0.90
2024-02-24T20:41:40.859Z,0.60
2024-02-24T20:44:08.749Z,0.90
2024-02-24T20:46:42.916Z,0.80
2024-02-24T20:49:12.180Z,0.77
2024-02-24T20:51:40.477Z,0.52
2024-02-24T20:54:08.431Z,0.70
2024-02-24T20:56:36.657Z,0.50
2024-02-24T20:59:04.868Z,0.45
2024-02-24T21:01:33.325Z,0.65
2024-02-24T21:04:01.263Z,0.47
2024-02-24T21:06:30.413Z,0.50
2024-02-24T21:08:58.227Z,0.57
2024-02-24T21:11:26.149Z,0.50
2024-02-24T21:13:54.048Z,0.85
2024-02-24T21:16:22.059Z,0.70
2024-02-24T21:18:50.623Z,0.50
2024-02-24T21:21:18.504Z,0.93
2024-02-24T21:23:48.667Z,0.57
2024-02-24T21:28:44.097Z,0.30
2024-02-24T21:31:11.835Z,0.50
2024-02-24T21:33:40.003Z,0.60
2024-02-24T21:36:08.573Z,0.75
2024-02-24T21:38:36.380Z,0.40
2024-02-24T21:41:05.840Z,0.30
2024-02-24T21:43:33.587Z,0.40
2024-02-24T21:46:01.495Z,0.50
2024-02-24T21:48:29.623Z,0.57
2024-02-24T21:50:58.681Z,0.98
2024-02-24T21:53:26.506Z,0.47
2024-02-24T21:55:54.439Z,0.50
2024-02-24T21:58:23.651Z,0.60
2024-02-24T22:00:52.382Z,0.47
2024-02-24T22:03:20.210Z,0.80
2024-02-24T22:05:48.050Z,0.70
2024-02-24T22:08:15.835Z,0.73
2024-02-24T22:10:43.776Z,0.52
2024-02-24T22:13:11.846Z,0.38
2024-02-24T22:15:41.306Z,0.50
2024-02-24T22:18:09.401Z,0.32
2024-02-24T22:20:37.254Z,0.35
2024-02-24T22:23:05.217Z,0.50
2024-02-24T22:25:33.002Z,0.60
2024-02-24T22:28:00.779Z,0.47
2024-02-24T22:30:28.606Z,0.40
2024-02-24T22:32:57.895Z,0.60
2024-02-24T22:35:26.078Z,0.40
2024-02-24T22:37:53.832Z,0.45
2024-02-24T22:40:21.583Z,0.60
2024-02-24T22:42:49.327Z,0.40
2024-02-24T22:45:18.557Z,0.30
2024-02-24T22:47:48.500Z,0.77
2024-02-24T22:50:18.088Z,0.40
2024-02-24T22:52:45.861Z,0.40
2024-02-24T22:55:13.747Z,0.40
2024-02-24T22:57:41.674Z,0.22
2024-02-24T23:00:14.187Z,0.52
2024-02-24T23:02:42.254Z,0.30
2024-02-24T23:05:10.481Z,0.30
2024-02-24T23:07:39.664Z,0.25
2024-02-24T23:10:09.813Z,1.27
2024-02-24T23:12:38.559Z,0.30
2024-02-24T23:15:07.300Z,0.63
2024-02-24T23:17:35.209Z,0.38
2024-02-24T23:20:03.025Z,0.45
2024-02-24T23:22:30.791Z,0.25
2024-02-24T23:25:00.510Z,0.40
2024-02-24T23:27:28.262Z,0.38
2024-02-24T23:29:56.041Z,0.30
2024-02-24T23:32:23.924Z,0.13
2024-02-24T23:34:51.986Z,0.35
2024-02-24T23:37:19.807Z,0.30
2024-02-24T23:39:47.621Z,0.30
2024-02-24T23:42:18.392Z,0.20
2024-02-24T23:44:46.264Z,0.20
2024-02-24T23:47:14.214Z,0.32
2024-02-24T23:49:43.033Z,0.20
2024-02-24T23:52:10.845Z,0.32
2024-02-24T23:54:38.619Z,0.30
2024-02-24T23:57:06.687Z,0.30
2024-02-24T23:59:35.844Z,0.50
